sensor_id;sensor_type;location;lat;lon;timestamp;P1;durP1;ratioP1;P2;durP2;ratioP2
51877;SDS011;37911;51.526;11.536;2022-08-01T00:02:15;6.32;;;3.17;;
51877;SDS011;37911;51.526;11.536;2022-08-01T00:05:21;7.55;;;3.40;;
51877;SDS011;37911;51.526;11.536;2022-08-01T00:08:25;8.23;;;3.50;;
51877;SDS011;37911;51.526;11.536;2022-08-01T00:11:28;5.25;;;3.20;;
51877;SDS011;37911;51.526;11.536;2022-08-01T00:14:31;7.50;;;3.40;;
51877;SDS011;37911;51.526;11.536;2022-08-01T00:17:35;9.45;;;3.58;;
51877;SDS011;37911;51.526;11.536;2022-08-01T00:20:41;6.40;;;2.88;;
51877;SDS011;37911;51.526;11.536;2022-08-01T00:23:45;7.80;;;3.25;;
51877;SDS011;37911;51.526;11.536;2022-08-01T00:26:48;5.95;;;3.33;;
51877;SDS011;37911;51.526;11.536;2022-08-01T00:29:52;5.78;;;2.47;;
51877;SDS011;37911;51.526;11.536;2022-08-01T00:32:55;5.55;;;2.55;;
51877;SDS011;37911;51.526;11.536;2022-08-01T00:36:01;6.18;;;3.15;;
51877;SDS011;37911;51.526;11.536;2022-08-01T00:39:04;6.40;;;2.85;;
51877;SDS011;37911;51.526;11.536;2022-08-01T00:42:08;7.70;;;3.05;;
51877;SDS011;37911;51.526;11.536;2022-08-01T00:45:12;5.40;;;2.78;;
51877;SDS011;37911;51.526;11.536;2022-08-01T00:48:16;6.22;;;3.10;;
51877;SDS011;37911;51.526;11.536;2022-08-01T00:51:22;6.93;;;2.67;;
51877;SDS011;37911;51.526;11.536;2022-08-01T00:54:25;3.97;;;2.80;;
51877;SDS011;37911;51.526;11.536;2022-08-01T00:57:29;6.05;;;3.05;;
51877;SDS011;37911;51.526;11.536;2022-08-01T01:00:34;6.85;;;2.45;;
51877;SDS011;37911;51.526;11.536;2022-08-01T01:03:37;5.68;;;2.83;;
51877;SDS011;37911;51.526;11.536;2022-08-01T01:06:44;6.63;;;2.80;;
51877;SDS011;37911;51.526;11.536;2022-08-01T01:09:54;4.55;;;3.00;;
51877;SDS011;37911;51.526;11.536;2022-08-01T01:13:05;5.38;;;2.70;;
51877;SDS011;37911;51.526;11.536;2022-08-01T01:16:13;4.78;;;3.00;;
51877;SDS011;37911;51.526;11.536;2022-08-01T01:19:20;4.35;;;2.70;;
51877;SDS011;37911;51.526;11.536;2022-08-01T01:22:36;5.03;;;2.72;;
51877;SDS011;37911;51.526;11.536;2022-08-01T01:26:01;6.15;;;2.70;;
51877;SDS011;37911;51.526;11.536;2022-08-01T01:29:16;4.18;;;2.80;;
51877;SDS011;37911;51.526;11.536;2022-08-01T01:32:22;6.28;;;2.97;;
51877;SDS011;37911;51.526;11.536;2022-08-01T01:35:34;4.57;;;2.83;;
51877;SDS011;37911;51.526;11.536;2022-08-01T01:38:41;4.40;;;2.72;;
51877;SDS011;37911;51.526;11.536;2022-08-01T01:41:46;4.90;;;2.67;;
51877;SDS011;37911;51.526;11.536;2022-08-01T01:44:54;7.65;;;3.17;;
51877;SDS011;37911;51.526;11.536;2022-08-01T01:47:59;5.63;;;2.78;;
51877;SDS011;37911;51.526;11.536;2022-08-01T01:51:04;5.25;;;2.47;;
51877;SDS011;37911;51.526;11.536;2022-08-01T01:54:08;4.70;;;2.42;;
51877;SDS011;37911;51.526;11.536;2022-08-01T01:57:12;3.72;;;2.53;;
51877;SDS011;37911;51.526;11.536;2022-08-01T02:00:20;4.35;;;2.60;;
51877;SDS011;37911;51.526;11.536;2022-08-01T02:03:25;3.88;;;2.35;;
51877;SDS011;37911;51.526;11.536;2022-08-01T02:06:29;6.43;;;2.80;;
51877;SDS011;37911;51.526;11.536;2022-08-01T02:09:35;5.38;;;2.60;;
51877;SDS011;37911;51.526;11.536;2022-08-01T02:12:41;5.03;;;2.75;;
51877;SDS011;37911;51.526;11.536;2022-08-01T02:15:49;7.45;;;2.90;;
51877;SDS011;37911;51.526;11.536;2022-08-01T02:18:53;4.38;;;2.67;;
51877;SDS011;37911;51.526;11.536;2022-08-01T02:21:57;3.28;;;2.45;;
51877;SDS011;37911;51.526;11.536;2022-08-01T02:25:05;8.55;;;3.15;;
51877;SDS011;37911;51.526;11.536;2022-08-01T02:28:15;6.55;;;2.70;;
51877;SDS011;37911;51.526;11.536;2022-08-01T02:31:25;5.15;;;2.53;;
51877;SDS011;37911;51.526;11.536;2022-08-01T02:34:33;7.43;;;2.90;;
51877;SDS011;37911;51.526;11.536;2022-08-01T02:37:38;3.65;;;2.20;;
51877;SDS011;37911;51.526;11.536;2022-08-01T02:40:43;6.25;;;2.55;;
51877;SDS011;37911;51.526;11.536;2022-08-01T02:43:49;3.35;;;2.22;;
51877;SDS011;37911;51.526;11.536;2022-08-01T02:46:59;3.90;;;2.50;;
51877;SDS011;37911;51.526;11.536;2022-08-01T02:50:05;5.45;;;2.60;;
51877;SDS011;37911;51.526;11.536;2022-08-01T02:53:10;4.55;;;2.50;;
51877;SDS011;37911;51.526;11.536;2022-08-01T02:56:16;5.10;;;2.35;;
51877;SDS011;37911;51.526;11.536;2022-08-01T02:59:21;7.50;;;2.65;;
51877;SDS011;37911;51.526;11.536;2022-08-01T03:02:29;4.13;;;2.10;;
51877;SDS011;37911;51.526;11.536;2022-08-01T03:05:35;6.25;;;2.10;;
51877;SDS011;37911;51.526;11.536;2022-08-01T03:08:40;3.38;;;2.08;;
51877;SDS011;37911;51.526;11.536;2022-08-01T03:11:45;5.38;;;2.10;;
51877;SDS011;37911;51.526;11.536;2022-08-01T03:14:51;3.08;;;2.17;;
51877;SDS011;37911;51.526;11.536;2022-08-01T03:17:59;4.43;;;1.88;;
51877;SDS011;37911;51.526;11.536;2022-08-01T03:21:03;3.47;;;2.10;;
51877;SDS011;37911;51.526;11.536;2022-08-01T03:24:07;2.45;;;2.03;;
51877;SDS011;37911;51.526;11.536;2022-08-01T03:27:13;2.75;;;2.03;;
51877;SDS011;37911;51.526;11.536;2022-08-01T03:30:21;3.97;;;2.20;;
51877;SDS011;37911;51.526;11.536;2022-08-01T03:33:27;4.18;;;2.20;;
51877;SDS011;37911;51.526;11.536;2022-08-01T03:36:32;4.22;;;2.20;;
51877;SDS011;37911;51.526;11.536;2022-08-01T03:39:44;2.42;;;1.90;;
51877;SDS011;37911;51.526;11.536;2022-08-01T03:42:52;4.57;;;2.03;;
51877;SDS011;37911;51.526;11.536;2022-08-01T03:46:01;4.28;;;2.25;;
51877;SDS011;37911;51.526;11.536;2022-08-01T03:49:14;8.57;;;2.28;;
51877;SDS011;37911;51.526;11.536;2022-08-01T03:52:21;5.82;;;2.20;;
51877;SDS011;37911;51.526;11.536;2022-08-01T03:55:25;6.00;;;2.40;;
51877;SDS011;37911;51.526;11.536;2022-08-01T03:58:30;5.35;;;2.10;;
51877;SDS011;37911;51.526;11.536;2022-08-01T04:01:34;4.05;;;2.40;;
51877;SDS011;37911;51.526;11.536;2022-08-01T04:04:40;3.75;;;2.40;;
51877;SDS011;37911;51.526;11.536;2022-08-01T04:07:45;5.30;;;2.47;;
51877;SDS011;37911;51.526;11.536;2022-08-01T04:10:55;4.47;;;2.20;;
51877;SDS011;37911;51.526;11.536;2022-08-01T04:13:58;4.90;;;2.25;;
51877;SDS011;37911;51.526;11.536;2022-08-01T04:17:02;5.57;;;2.63;;
51877;SDS011;37911;51.526;11.536;2022-08-01T04:20:08;7.57;;;2.40;;
51877;SDS011;37911;51.526;11.536;2022-08-01T04:23:13;4.88;;;2.22;;
51877;SDS011;37911;51.526;11.536;2022-08-01T04:26:19;4.00;;;2.15;;
51877;SDS011;37911;51.526;11.536;2022-08-01T04:29:24;3.40;;;2.20;;
51877;SDS011;37911;51.526;11.536;2022-08-01T04:32:29;4.60;;;2.08;;
51877;SDS011;37911;51.526;11.536;2022-08-01T04:35:39;5.30;;;2.22;;
51877;SDS011;37911;51.526;11.536;2022-08-01T04:41:50;4.65;;;2.25;;
51877;SDS011;37911;51.526;11.536;2022-08-01T04:44:56;6.80;;;2.30;;
51877;SDS011;37911;51.526;11.536;2022-08-01T04:48:00;6.47;;;2.38;;
51877;SDS011;37911;51.526;11.536;2022-08-01T04:51:13;4.70;;;2.17;;
51877;SDS011;37911;51.526;11.536;2022-08-01T04:54:18;2.80;;;1.95;;
51877;SDS011;37911;51.526;11.536;2022-08-01T04:57:21;4.03;;;2.10;;
51877;SDS011;37911;51.526;11.536;2022-08-01T05:00:24;2.90;;;1.88;;
51877;SDS011;37911;51.526;11.536;2022-08-01T05:03:28;2.80;;;2.00;;
51877;SDS011;37911;51.526;11.536;2022-08-01T05:06:34;6.55;;;2.10;;
51877;SDS011;37911;51.526;11.536;2022-08-01T05:09:38;4.72;;;2.03;;
51877;SDS011;37911;51.526;11.536;2022-08-01T05:12:42;7.68;;;2.33;;
51877;SDS011;37911;51.526;11.536;2022-08-01T05:15:46;2.67;;;1.88;;
51877;SDS011;37911;51.526;11.536;2022-08-01T05:18:50;3.13;;;1.60;;
51877;SDS011;37911;51.526;11.536;2022-08-01T05:21:55;2.83;;;1.70;;
51877;SDS011;37911;51.526;11.536;2022-08-01T05:25:00;2.17;;;1.60;;
51877;SDS011;37911;51.526;11.536;2022-08-01T05:28:05;2.13;;;1.50;;
51877;SDS011;37911;51.526;11.536;2022-08-01T05:31:08;2.95;;;1.48;;
51877;SDS011;37911;51.526;11.536;2022-08-01T05:34:11;3.60;;;1.80;;
51877;SDS011;37911;51.526;11.536;2022-08-01T05:37:17;2.42;;;1.58;;
51877;SDS011;37911;51.526;11.536;2022-08-01T05:40:21;2.53;;;1.55;;
51877;SDS011;37911;51.526;11.536;2022-08-01T05:43:24;4.70;;;1.60;;
51877;SDS011;37911;51.526;11.536;2022-08-01T05:46:27;3.47;;;1.48;;
51877;SDS011;37911;51.526;11.536;2022-08-01T05:49:31;1.90;;;1.40;;
51877;SDS011;37911;51.526;11.536;2022-08-01T05:52:37;1.73;;;1.42;;
51877;SDS011;37911;51.526;11.536;2022-08-01T05:55:40;5.15;;;1.48;;
51877;SDS011;37911;51.526;11.536;2022-08-01T05:58:43;2.50;;;1.35;;
51877;SDS011;37911;51.526;11.536;2022-08-01T06:01:47;2.67;;;1.50;;
51877;SDS011;37911;51.526;11.536;2022-08-01T06:04:50;1.40;;;1.20;;
51877;SDS011;37911;51.526;11.536;2022-08-01T06:07:56;1.63;;;1.15;;
51877;SDS011;37911;51.526;11.536;2022-08-01T06:11:00;1.38;;;1.10;;
51877;SDS011;37911;51.526;11.536;2022-08-01T06:14:03;1.30;;;1.20;;
51877;SDS011;37911;51.526;11.536;2022-08-01T06:17:07;4.03;;;1.20;;
51877;SDS011;37911;51.526;11.536;2022-08-01T06:20:10;1.85;;;1.13;;
51877;SDS011;37911;51.526;11.536;2022-08-01T06:23:16;1.85;;;1.30;;
51877;SDS011;37911;51.526;11.536;2022-08-01T06:26:20;1.60;;;1.10;;
51877;SDS011;37911;51.526;11.536;2022-08-01T06:29:23;2.63;;;1.25;;
51877;SDS011;37911;51.526;11.536;2022-08-01T06:32:27;1.75;;;1.10;;
51877;SDS011;37911;51.526;11.536;2022-08-01T06:35:31;4.07;;;1.10;;
51877;SDS011;37911;51.526;11.536;2022-08-01T06:38:38;2.08;;;1.15;;
51877;SDS011;37911;51.526;11.536;2022-08-01T06:41:41;1.10;;;1.00;;
51877;SDS011;37911;51.526;11.536;2022-08-01T06:44:46;3.40;;;1.08;;
51877;SDS011;37911;51.526;11.536;2022-08-01T06:47:49;3.95;;;0.88;;
51877;SDS011;37911;51.526;11.536;2022-08-01T06:50:52;1.67;;;1.00;;
51877;SDS011;37911;51.526;11.536;2022-08-01T06:54:10;0.75;;;0.75;;
51877;SDS011;37911;51.526;11.536;2022-08-01T06:57:13;4.15;;;1.20;;
51877;SDS011;37911;51.526;11.536;2022-08-01T07:00:17;1.15;;;1.00;;
51877;SDS011;37911;51.526;11.536;2022-08-01T07:03:25;2.58;;;1.20;;
51877;SDS011;37911;51.526;11.536;2022-08-01T07:06:30;0.98;;;0.82;;
51877;SDS011;37911;51.526;11.536;2022-08-01T07:09:39;1.40;;;1.10;;
51877;SDS011;37911;51.526;11.536;2022-08-01T07:12:45;1.77;;;0.75;;
51877;SDS011;37911;51.526;11.536;2022-08-01T07:15:51;2.55;;;1.20;;
51877;SDS011;37911;51.526;11.536;2022-08-01T07:18:55;1.27;;;0.98;;
51877;SDS011;37911;51.526;11.536;2022-08-01T07:21:59;1.33;;;0.90;;
51877;SDS011;37911;51.526;11.536;2022-08-01T07:25:06;1.85;;;0.80;;
51877;SDS011;37911;51.526;11.536;2022-08-01T07:28:10;2.45;;;0.80;;
51877;SDS011;37911;51.526;11.536;2022-08-01T07:31:13;0.70;;;0.70;;
51877;SDS011;37911;51.526;11.536;2022-08-01T07:34:17;0.93;;;0.65;;
51877;SDS011;37911;51.526;11.536;2022-08-01T07:37:20;3.40;;;0.80;;
51877;SDS011;37911;51.526;11.536;2022-08-01T07:40:26;0.70;;;0.70;;
51877;SDS011;37911;51.526;11.536;2022-08-01T07:43:30;4.00;;;1.00;;
51877;SDS011;37911;51.526;11.536;2022-08-01T07:46:33;1.50;;;0.68;;
51877;SDS011;37911;51.526;11.536;2022-08-01T07:49:36;0.80;;;0.80;;
51877;SDS011;37911;51.526;11.536;2022-08-01T07:52:40;3.20;;;0.88;;
51877;SDS011;37911;51.526;11.536;2022-08-01T07:55:45;1.55;;;1.10;;
51877;SDS011;37911;51.526;11.536;2022-08-01T07:58:49;4.00;;;0.60;;
51877;SDS011;37911;51.526;11.536;2022-08-01T08:01:52;0.40;;;0.40;;
51877;SDS011;37911;51.526;11.536;2022-08-01T08:04:56;2.25;;;0.57;;
51877;SDS011;37911;51.526;11.536;2022-08-01T08:07:59;0.40;;;0.40;;
51877;SDS011;37911;51.526;11.536;2022-08-01T08:11:05;1.67;;;0.80;;
51877;SDS011;37911;51.526;11.536;2022-08-01T08:14:08;0.65;;;0.60;;
51877;SDS011;37911;51.526;11.536;2022-08-01T08:17:12;2.65;;;0.68;;
51877;SDS011;37911;51.526;11.536;2022-08-01T08:20:15;0.70;;;0.70;;
51877;SDS011;37911;51.526;11.536;2022-08-01T08:23:21;0.80;;;0.60;;
51877;SDS011;37911;51.526;11.536;2022-08-01T08:26:39;0.50;;;0.50;;
51877;SDS011;37911;51.526;11.536;2022-08-01T08:29:43;0.50;;;0.50;;
51877;SDS011;37911;51.526;11.536;2022-08-01T08:32:47;1.55;;;0.68;;
51877;SDS011;37911;51.526;11.536;2022-08-01T08:35:50;0.38;;;0.38;;
51877;SDS011;37911;51.526;11.536;2022-08-01T08:38:54;0.52;;;0.52;;
51877;SDS011;37911;51.526;11.536;2022-08-01T08:42:04;2.75;;;0.80;;
51877;SDS011;37911;51.526;11.536;2022-08-01T08:45:09;0.30;;;0.30;;
51877;SDS011;37911;51.526;11.536;2022-08-01T08:48:13;0.75;;;0.45;;
51877;SDS011;37911;51.526;11.536;2022-08-01T08:51:17;1.80;;;0.80;;
51877;SDS011;37911;51.526;11.536;2022-08-01T08:54:22;4.03;;;0.80;;
51877;SDS011;37911;51.526;11.536;2022-08-01T08:57:29;0.60;;;0.57;;
51877;SDS011;37911;51.526;11.536;2022-08-01T09:00:33;1.15;;;0.73;;
51877;SDS011;37911;51.526;11.536;2022-08-01T09:03:36;0.90;;;0.65;;
51877;SDS011;37911;51.526;11.536;2022-08-01T09:06:40;2.05;;;0.70;;
51877;SDS011;37911;51.526;11.536;2022-08-01T09:09:43;0.60;;;0.60;;
51877;SDS011;37911;51.526;11.536;2022-08-01T09:16:15;1.38;;;0.60;;
51877;SDS011;37911;51.526;11.536;2022-08-01T09:19:20;0.90;;;0.70;;
51877;SDS011;37911;51.526;11.536;2022-08-01T09:22:24;0.80;;;0.80;;
51877;SDS011;37911;51.526;11.536;2022-08-01T09:25:28;0.90;;;0.77;;
51877;SDS011;37911;51.526;11.536;2022-08-01T09:28:36;3.50;;;0.68;;
51877;SDS011;37911;51.526;11.536;2022-08-01T09:31:41;8.32;;;0.82;;
51877;SDS011;37911;51.526;11.536;2022-08-01T09:34:45;1.98;;;1.10;;
51877;SDS011;37911;51.526;11.536;2022-08-01T09:37:48;2.70;;;0.98;;
51877;SDS011;37911;51.526;11.536;2022-08-01T09:40:52;0.60;;;0.60;;
51877;SDS011;37911;51.526;11.536;2022-08-01T09:43:59;0.85;;;0.82;;
51877;SDS011;37911;51.526;11.536;2022-08-01T09:47:03;0.57;;;0.57;;
51877;SDS011;37911;51.526;11.536;2022-08-01T09:50:07;1.42;;;0.70;;
51877;SDS011;37911;51.526;11.536;2022-08-01T09:53:11;0.98;;;0.80;;
51877;SDS011;37911;51.526;11.536;2022-08-01T09:56:15;1.42;;;0.82;;
51877;SDS011;37911;51.526;11.536;2022-08-01T09:59:36;1.30;;;0.50;;
51877;SDS011;37911;51.526;11.536;2022-08-01T10:02:42;0.75;;;0.40;;
51877;SDS011;37911;51.526;11.536;2022-08-01T10:05:45;1.88;;;0.60;;
51877;SDS011;37911;51.526;11.536;2022-08-01T10:08:48;2.05;;;0.50;;
51877;SDS011;37911;51.526;11.536;2022-08-01T10:11:52;0.55;;;0.30;;
51877;SDS011;37911;51.526;11.536;2022-08-01T10:15:00;0.68;;;0.30;;
51877;SDS011;37911;51.526;11.536;2022-08-01T10:18:04;2.30;;;0.40;;
51877;SDS011;37911;51.526;11.536;2022-08-01T10:21:10;0.30;;;0.30;;
51877;SDS011;37911;51.526;11.536;2022-08-01T10:24:14;1.00;;;0.50;;
51877;SDS011;37911;51.526;11.536;2022-08-01T10:27:18;3.30;;;0.45;;
51877;SDS011;37911;51.526;11.536;2022-08-01T10:30:24;0.50;;;0.50;;
51877;SDS011;37911;51.526;11.536;2022-08-01T10:33:29;0.40;;;0.30;;
51877;SDS011;37911;51.526;11.536;2022-08-01T10:36:32;0.57;;;0.57;;
51877;SDS011;37911;51.526;11.536;2022-08-01T10:39:38;2.53;;;0.57;;
51877;SDS011;37911;51.526;11.536;2022-08-01T10:42:43;0.50;;;0.50;;
51877;SDS011;37911;51.526;11.536;2022-08-01T10:45:50;0.30;;;0.30;;
51877;SDS011;37911;51.526;11.536;2022-08-01T10:48:55;0.60;;;0.60;;
51877;SDS011;37911;51.526;11.536;2022-08-01T10:52:04;0.40;;;0.40;;
51877;SDS011;37911;51.526;11.536;2022-08-01T10:55:08;0.35;;;0.35;;
51877;SDS011;37911;51.526;11.536;2022-08-01T10:58:12;0.70;;;0.40;;
51877;SDS011;37911;51.526;11.536;2022-08-01T11:01:19;0.38;;;0.38;;
51877;SDS011;37911;51.526;11.536;2022-08-01T11:04:32;0.28;;;0.28;;
51877;SDS011;37911;51.526;11.536;2022-08-01T11:07:39;0.70;;;0.60;;
51877;SDS011;37911;51.526;11.536;2022-08-01T11:10:47;3.25;;;0.70;;
51877;SDS011;37911;51.526;11.536;2022-08-01T11:14:00;0.93;;;0.70;;
51877;SDS011;37911;51.526;11.536;2022-08-01T11:20:37;1.17;;;0.70;;
51877;SDS011;37911;51.526;11.536;2022-08-01T11:23:58;1.90;;;0.95;;
51877;SDS011;37911;51.526;11.536;2022-08-01T11:27:15;3.28;;;1.63;;
51877;SDS011;37911;51.526;11.536;2022-08-01T11:37:03;1.33;;;1.20;;
51877;SDS011;37911;51.526;11.536;2022-08-01T11:40:29;2.95;;;1.40;;
51877;SDS011;37911;51.526;11.536;2022-08-01T11:43:32;0.90;;;0.85;;
51877;SDS011;37911;51.526;11.536;2022-08-01T11:46:44;2.75;;;1.10;;
51877;SDS011;37911;51.526;11.536;2022-08-01T11:49:51;2.40;;;1.30;;
51877;SDS011;37911;51.526;11.536;2022-08-01T11:52:59;3.72;;;1.10;;
51877;SDS011;37911;51.526;11.536;2022-08-01T11:56:03;1.63;;;1.30;;
51877;SDS011;37911;51.526;11.536;2022-08-01T11:59:07;1.90;;;1.65;;
51877;SDS011;37911;51.526;11.536;2022-08-01T12:02:17;2.50;;;1.58;;
51877;SDS011;37911;51.526;11.536;2022-08-01T12:05:25;1.20;;;1.10;;
51877;SDS011;37911;51.526;11.536;2022-08-01T12:08:30;1.17;;;0.93;;
51877;SDS011;37911;51.526;11.536;2022-08-01T12:11:36;0.93;;;0.93;;
51877;SDS011;37911;51.526;11.536;2022-08-01T12:14:41;4.38;;;0.85;;
51877;SDS011;37911;51.526;11.536;2022-08-01T12:17:46;1.20;;;0.68;;
51877;SDS011;37911;51.526;11.536;2022-08-01T12:20:59;0.90;;;0.85;;
51877;SDS011;37911;51.526;11.536;2022-08-01T12:24:06;0.52;;;0.50;;
51877;SDS011;37911;51.526;11.536;2022-08-01T12:27:09;0.57;;;0.57;;
51877;SDS011;37911;51.526;11.536;2022-08-01T12:30:14;0.82;;;0.50;;
51877;SDS011;37911;51.526;11.536;2022-08-01T12:33:20;0.80;;;0.60;;
51877;SDS011;37911;51.526;11.536;2022-08-01T12:36:29;2.28;;;0.70;;
51877;SDS011;37911;51.526;11.536;2022-08-01T12:39:33;1.58;;;0.60;;
51877;SDS011;37911;51.526;11.536;2022-08-01T12:42:37;0.70;;;0.70;;
51877;SDS011;37911;51.526;11.536;2022-08-01T12:45:42;0.73;;;0.70;;
51877;SDS011;37911;51.526;11.536;2022-08-01T12:48:47;0.50;;;0.50;;
51877;SDS011;37911;51.526;11.536;2022-08-01T12:51:53;0.88;;;0.70;;
51877;SDS011;37911;51.526;11.536;2022-08-01T12:55:03;4.47;;;1.30;;
51877;SDS011;37911;51.526;11.536;2022-08-01T12:58:12;1.70;;;1.40;;
51877;SDS011;37911;51.526;11.536;2022-08-01T13:01:24;2.08;;;1.80;;
51877;SDS011;37911;51.526;11.536;2022-08-01T13:04:48;6.68;;;1.60;;
51877;SDS011;37911;51.526;11.536;2022-08-01T13:07:55;2.17;;;1.60;;
51877;SDS011;37911;51.526;11.536;2022-08-01T13:11:02;2.20;;;1.42;;
51877;SDS011;37911;51.526;11.536;2022-08-01T13:14:09;2.55;;;1.60;;
51877;SDS011;37911;51.526;11.536;2022-08-01T13:20:36;1.45;;;1.15;;
51877;SDS011;37911;51.526;11.536;2022-08-01T13:23:42;3.75;;;0.80;;
51877;SDS011;37911;51.526;11.536;2022-08-01T13:27:03;1.90;;;0.68;;
51877;SDS011;37911;51.526;11.536;2022-08-01T13:30:14;1.35;;;0.82;;
51877;SDS011;37911;51.526;11.536;2022-08-01T13:33:18;1.13;;;0.60;;
51877;SDS011;37911;51.526;11.536;2022-08-01T13:36:22;1.30;;;0.80;;
51877;SDS011;37911;51.526;11.536;2022-08-01T13:39:30;0.57;;;0.55;;
51877;SDS011;37911;51.526;11.536;2022-08-01T13:42:45;1.10;;;0.70;;
51877;SDS011;37911;51.526;11.536;2022-08-01T13:45:49;0.70;;;0.70;;
51877;SDS011;37911;51.526;11.536;2022-08-01T13:48:52;0.65;;;0.65;;
51877;SDS011;37911;51.526;11.536;2022-08-01T13:51:56;0.75;;;0.70;;
51877;SDS011;37911;51.526;11.536;2022-08-01T13:55:02;6.05;;;1.27;;
51877;SDS011;37911;51.526;11.536;2022-08-01T13:58:06;7.80;;;2.20;;
51877;SDS011;37911;51.526;11.536;2022-08-01T14:01:09;1.08;;;0.60;;
51877;SDS011;37911;51.526;11.536;2022-08-01T14:04:12;2.72;;;0.80;;
51877;SDS011;37911;51.526;11.536;2022-08-01T14:07:16;0.65;;;0.65;;
51877;SDS011;37911;51.526;11.536;2022-08-01T14:10:22;2.63;;;1.02;;
51877;SDS011;37911;51.526;11.536;2022-08-01T14:13:25;1.00;;;0.75;;
51877;SDS011;37911;51.526;11.536;2022-08-01T14:16:29;1.92;;;0.88;;
51877;SDS011;37911;51.526;11.536;2022-08-01T14:19:32;1.10;;;1.00;;
51877;SDS011;37911;51.526;11.536;2022-08-01T14:22:35;1.13;;;1.02;;
51877;SDS011;37911;51.526;11.536;2022-08-01T14:25:43;5.82;;;1.17;;
51877;SDS011;37911;51.526;11.536;2022-08-01T14:28:46;3.67;;;0.90;;
51877;SDS011;37911;51.526;11.536;2022-08-01T14:31:49;1.98;;;1.10;;
51877;SDS011;37911;51.526;11.536;2022-08-01T14:34:53;4.95;;;1.15;;
51877;SDS011;37911;51.526;11.536;2022-08-01T14:37:56;1.95;;;1.02;;
51877;SDS011;37911;51.526;11.536;2022-08-01T14:41:02;1.92;;;1.17;;
51877;SDS011;37911;51.526;11.536;2022-08-01T14:44:06;4.22;;;1.20;;
51877;SDS011;37911;51.526;11.536;2022-08-01T14:47:09;2.03;;;1.30;;
51877;SDS011;37911;51.526;11.536;2022-08-01T14:50:13;1.85;;;1.30;;
51877;SDS011;37911;51.526;11.536;2022-08-01T14:53:17;1.50;;;1.20;;
51877;SDS011;37911;51.526;11.536;2022-08-01T14:56:26;4.00;;;1.50;;
51877;SDS011;37911;51.526;11.536;2022-08-01T14:59:30;4.18;;;1.65;;
51877;SDS011;37911;51.526;11.536;2022-08-01T15:02:33;1.52;;;1.15;;
51877;SDS011;37911;51.526;11.536;2022-08-01T15:05:36;1.10;;;1.00;;
51877;SDS011;37911;51.526;11.536;2022-08-01T15:08:39;2.30;;;0.90;;
51877;SDS011;37911;51.526;11.536;2022-08-01T15:11:45;4.85;;;1.35;;
51877;SDS011;37911;51.526;11.536;2022-08-01T15:14:49;2.80;;;1.30;;
51877;SDS011;37911;51.526;11.536;2022-08-01T15:17:52;2.47;;;1.20;;
51877;SDS011;37911;51.526;11.536;2022-08-01T15:20:56;2.08;;;1.20;;
51877;SDS011;37911;51.526;11.536;2022-08-01T15:24:00;2.15;;;1.30;;
51877;SDS011;37911;51.526;11.536;2022-08-01T15:27:06;3.53;;;1.10;;
51877;SDS011;37911;51.526;11.536;2022-08-01T15:30:10;4.38;;;1.70;;
51877;SDS011;37911;51.526;11.536;2022-08-01T15:33:14;1.23;;;1.13;;
51877;SDS011;37911;51.526;11.536;2022-08-01T15:36:18;1.23;;;1.00;;
51877;SDS011;37911;51.526;11.536;2022-08-01T15:39:21;2.72;;;1.60;;
51877;SDS011;37911;51.526;11.536;2022-08-01T15:42:27;1.90;;;1.40;;
51877;SDS011;37911;51.526;11.536;2022-08-01T15:45:30;1.58;;;1.40;;
51877;SDS011;37911;51.526;11.536;2022-08-01T15:48:33;1.63;;;1.40;;
51877;SDS011;37911;51.526;11.536;2022-08-01T15:51:37;3.33;;;1.90;;
51877;SDS011;37911;51.526;11.536;2022-08-01T15:54:41;2.33;;;1.55;;
51877;SDS011;37911;51.526;11.536;2022-08-01T15:57:46;4.05;;;1.77;;
51877;SDS011;37911;51.526;11.536;2022-08-01T16:00:50;4.10;;;2.22;;
51877;SDS011;37911;51.526;11.536;2022-08-01T16:03:53;2.55;;;1.80;;
51877;SDS011;37911;51.526;11.536;2022-08-01T16:06:57;2.15;;;1.55;;
51877;SDS011;37911;51.526;11.536;2022-08-01T16:10:01;5.28;;;1.70;;
51877;SDS011;37911;51.526;11.536;2022-08-01T16:13:07;2.35;;;1.88;;
51877;SDS011;37911;51.526;11.536;2022-08-01T16:16:10;2.05;;;1.65;;
51877;SDS011;37911;51.526;11.536;2022-08-01T16:19:15;4.80;;;1.73;;
51877;SDS011;37911;51.526;11.536;2022-08-01T16:22:19;2.88;;;1.60;;
51877;SDS011;37911;51.526;11.536;2022-08-01T16:25:22;3.30;;;1.58;;
51877;SDS011;37911;51.526;11.536;2022-08-01T16:28:28;5.00;;;1.60;;
51877;SDS011;37911;51.526;11.536;2022-08-01T16:31:32;2.90;;;1.90;;
51877;SDS011;37911;51.526;11.536;2022-08-01T16:34:35;3.80;;;1.83;;
51877;SDS011;37911;51.526;11.536;2022-08-01T16:37:39;1.50;;;1.30;;
51877;SDS011;37911;51.526;11.536;2022-08-01T16:40:42;4.25;;;1.90;;
51877;SDS011;37911;51.526;11.536;2022-08-01T16:43:49;4.40;;;1.98;;
51877;SDS011;37911;51.526;11.536;2022-08-01T16:46:52;2.50;;;1.80;;
51877;SDS011;37911;51.526;11.536;2022-08-01T16:49:56;3.65;;;1.60;;
51877;SDS011;37911;51.526;11.536;2022-08-01T16:52:59;1.73;;;1.63;;
51877;SDS011;37911;51.526;11.536;2022-08-01T16:56:02;2.35;;;1.90;;
51877;SDS011;37911;51.526;11.536;2022-08-01T16:59:09;5.10;;;2.10;;
51877;SDS011;37911;51.526;11.536;2022-08-01T17:02:12;3.28;;;1.77;;
51877;SDS011;37911;51.526;11.536;2022-08-01T17:05:22;3.92;;;2.00;;
51877;SDS011;37911;51.526;11.536;2022-08-01T17:08:28;3.65;;;2.00;;
51877;SDS011;37911;51.526;11.536;2022-08-01T17:11:31;3.33;;;1.95;;
51877;SDS011;37911;51.526;11.536;2022-08-01T17:14:37;3.65;;;2.08;;
51877;SDS011;37911;51.526;11.536;2022-08-01T17:17:41;3.08;;;2.30;;
51877;SDS011;37911;51.526;11.536;2022-08-01T17:20:44;6.28;;;2.25;;
51877;SDS011;37911;51.526;11.536;2022-08-01T17:23:49;3.47;;;2.40;;
51877;SDS011;37911;51.526;11.536;2022-08-01T17:26:52;3.75;;;2.55;;
51877;SDS011;37911;51.526;11.536;2022-08-01T17:29:58;3.95;;;2.38;;
51877;SDS011;37911;51.526;11.536;2022-08-01T17:33:02;4.47;;;2.28;;
51877;SDS011;37911;51.526;11.536;2022-08-01T17:36:06;3.67;;;2.38;;
51877;SDS011;37911;51.526;11.536;2022-08-01T17:39:10;3.80;;;2.28;;
51877;SDS011;37911;51.526;11.536;2022-08-01T17:42:16;3.92;;;2.35;;
51877;SDS011;37911;51.526;11.536;2022-08-01T17:45:22;4.63;;;2.30;;
51877;SDS011;37911;51.526;11.536;2022-08-01T17:48:26;4.93;;;2.10;;
51877;SDS011;37911;51.526;11.536;2022-08-01T17:51:29;3.78;;;2.00;;
51877;SDS011;37911;51.526;11.536;2022-08-01T17:54:33;4.50;;;2.17;;
51877;SDS011;37911;51.526;11.536;2022-08-01T17:57:36;5.40;;;1.60;;
51877;SDS011;37911;51.526;11.536;2022-08-01T18:00:42;4.13;;;1.80;;
51877;SDS011;37911;51.526;11.536;2022-08-01T18:03:45;5.55;;;1.70;;
51877;SDS011;37911;51.526;11.536;2022-08-01T18:06:49;1.80;;;1.30;;
51877;SDS011;37911;51.526;11.536;2022-08-01T18:09:53;3.20;;;1.80;;
51877;SDS011;37911;51.526;11.536;2022-08-01T18:12:56;2.40;;;1.50;;
51877;SDS011;37911;51.526;11.536;2022-08-01T18:16:03;3.90;;;1.50;;
51877;SDS011;37911;51.526;11.536;2022-08-01T18:19:10;4.30;;;1.70;;
51877;SDS011;37911;51.526;11.536;2022-08-01T18:22:13;2.08;;;1.50;;
51877;SDS011;37911;51.526;11.536;2022-08-01T18:25:18;10.00;;;1.80;;
51877;SDS011;37911;51.526;11.536;2022-08-01T18:28:23;3.90;;;1.50;;
51877;SDS011;37911;51.526;11.536;2022-08-01T18:31:30;3.55;;;1.70;;
51877;SDS011;37911;51.526;11.536;2022-08-01T18:34:34;3.72;;;1.40;;
51877;SDS011;37911;51.526;11.536;2022-08-01T18:37:37;4.53;;;1.45;;
51877;SDS011;37911;51.526;11.536;2022-08-01T18:40:41;2.40;;;1.35;;